ADDS METAR Data INFO
IDs: Format: Raw Decoded Include TAF

Data at: 0346 UTC 20 Feb 2018

KSBO 200335Z AUTO 15006KT 10SM CLR 20/17 A3036 RMK AO2
KSBO 200315Z AUTO 15006KT 10SM CLR 20/17 A3036 RMK AO2
KSBO 200255Z AUTO 15007KT 10SM CLR 21/17 A3035 RMK AO2
KSBO 200235Z AUTO 15009KT 10SM CLR 21/17 A3034 RMK AO2
KSBO 200215Z AUTO 16010KT 10SM CLR 21/17 A3034 RMK AO2
KSBO 200155Z AUTO 15008KT 10SM CLR 21/17 A3033 RMK AO2
KSBO 200135Z AUTO 15008KT 10SM SCT070 21/17 A3033 RMK AO2
KSBO 200115Z AUTO 14007KT 10SM SCT037 SCT043 OVC070 22/17 A3033 RMK AO2
KSBO 200055Z AUTO 13005KT 10SM SCT039 SCT060 BKN070 22/17 A3033 RMK AO2
KSBO 200035Z AUTO 12004KT 10SM SCT041 BKN050 OVC070 22/17 A3032 RMK AO2
KSBO 200015Z AUTO 13003KT 10SM BKN050 OVC065 22/16 A3032 RMK AO2
KSBO 192355Z AUTO 14004KT 10SM BKN055 BKN065 22/16 A3031 RMK AO2
KSBO 192335Z AUTO 00000KT 10SM SCT050 23/16 A3031 RMK AO2
KSBO 192315Z AUTO 00000KT 10SM CLR 23/16 A3030 RMK AO2
KSBO 192255Z AUTO 18004KT 10SM SCT070 25/16 A3029 RMK AO2
KSBO 192235Z AUTO 16004KT 10SM SCT070 25/16 A3029 RMK AO2
KSBO 192215Z AUTO 16007KT 10SM CLR 25/15 A3029 RMK AO2
KSBO 192155Z AUTO 17006KT 10SM SCT065 26/15 A3029 RMK AO2
KSBO 192135Z AUTO 16008KT 10SM SCT048 26/15 A3029 RMK AO2
KSBO 192115Z AUTO 20009G14KT 10SM SCT046 SCT060 26/15 A3029 RMK AO2
KSBO 192055Z AUTO 20013KT 10SM BKN046 BKN060 27/15 A3029 RMK AO2
KSBO 192035Z AUTO 14009KT 10SM BKN040 BKN048 OVC060 26/16 A3030 RMK AO2
KSBO 192015Z AUTO 21006KT 10SM BKN040 BKN050 BKN060 26/16 A3030 RMK AO2
KSBO 191955Z AUTO 17008KT 160V220 10SM CLR 26/16 A3031 RMK AO2
KSBO 191935Z AUTO 21005KT 10SM CLR 26/16 A3031 RMK AO2
KSBO 191915Z AUTO 21006KT 10SM CLR 25/16 A3032 RMK AO2
KSBO 191855Z AUTO 21008KT 10SM CLR 25/16 A3033 RMK AO2
KSBO 191835Z AUTO 20007KT 170V240 10SM CLR 24/17 A3034 RMK AO2
KSBO 191815Z AUTO 21006KT 10SM SCT060 23/17 A3036 RMK AO2
KSBO 191755Z AUTO 17005KT 10SM SCT022 BKN060 23/17 A3036 RMK AO2
KSBO 191735Z AUTO 17007KT 10SM SCT020 BKN060 23/17 A3037 RMK AO2
KSBO 191715Z AUTO 20008KT 10SM BKN020 BKN050 22/17 A3039 RMK AO2
KSBO 191655Z AUTO 19005KT 10SM BKN020 BKN049 BKN065 22/17 A3039 RMK AO2
KSBO 191635Z AUTO 18006KT 10SM BKN020 OVC049 22/17 A3039 RMK AO2
KSBO 191615Z AUTO 17007KT 10SM BKN020 22/17 A3039 RMK AO2
KSBO 191555Z AUTO 18005KT 10SM BKN018 BKN024 22/17 A3039 RMK AO2
KSBO 191535Z AUTO 17007KT 10SM BKN016 22/17 A3039 RMK AO2
KSBO 191515Z AUTO 18005KT 10SM BKN014 21/17 A3039 RMK AO2
KSBO 191455Z AUTO 19007KT 10SM SCT012 20/16 A3039 RMK AO2
KSBO 191435Z AUTO 17005KT 10SM SCT010 19/16 A3039 RMK AO2
KSBO 191415Z AUTO 15006KT 10SM BKN010 18/16 A3039 RMK AO2
KSBO 191355Z AUTO 13004KT 10SM OVC010 17/16 A3039 RMK AO2
KSBO 191335Z AUTO 14004KT 10SM OVC012 17/15 A3039 RMK AO2
KSBO 191315Z AUTO 11003KT 10SM OVC012 17/15 A3039 RMK AO2
KSBO 191255Z AUTO 10003KT 7SM OVC012 17/15 A3038 RMK AO2
KSBO 191235Z AUTO 12005KT 7SM OVC010 16/15 A3038 RMK AO2
KSBO 191215Z AUTO 10003KT 7SM OVC010 16/15 A3037 RMK AO2
KSBO 191155Z AUTO 00000KT 7SM OVC010 16/15 A3036 RMK AO2
KSBO 191135Z AUTO 00000KT 7SM OVC010 16/15 A3036 RMK AO2
KSBO 191115Z AUTO 10003KT 7SM OVC008 16/15 A3035 RMK AO2
KSBO 191055Z AUTO 11003KT 5SM BR OVC008 16/15 A3035 RMK AO2
KSBO 191035Z AUTO 12004KT 5SM BR OVC008 16/15 A3034 RMK AO2
KSBO 191015Z AUTO 00000KT 7SM OVC008 16/15 A3034 RMK AO2
KSBO 190955Z AUTO 00000KT 5SM BR OVC006 16/15 A3033 RMK AO2
KSBO 190935Z AUTO 14003KT 5SM BR OVC006 16/15 A3033 RMK AO2
KSBO 190915Z AUTO 14003KT 4SM BR OVC006 16/15 A3032 RMK AO2
KSBO 190855Z AUTO 12004KT 5SM BR OVC006 16/15 A3032 RMK AO2
KSBO 190835Z AUTO 13005KT 4SM BR OVC006 16/15 A3032 RMK AO2
KSBO 190815Z AUTO 14005KT 7SM OVC006 16/15 A3031 RMK AO2
KSBO 190755Z AUTO 14008KT 10SM OVC008 16/15 A3031 RMK AO2
KSBO 190735Z AUTO 14006KT 10SM OVC008 16/15 A3031 RMK AO2
KSBO 190715Z AUTO 13005KT 10SM OVC008 16/15 A3031 RMK AO2
KSBO 190655Z AUTO 14006KT 10SM OVC010 16/15 A3031 RMK AO2
KSBO 190635Z AUTO 14006KT 10SM OVC010 16/15 A3031 RMK AO2
KSBO 190615Z AUTO 13006KT 10SM OVC010 17/15 A3032 RMK AO2
KSBO 190555Z AUTO 13007KT 10SM OVC010 17/15 A3032 RMK AO2
KSBO 190535Z AUTO 12006KT 10SM OVC010 17/15 A3032 RMK AO2
KSBO 190515Z AUTO 13006KT 10SM OVC010 17/15 A3032 RMK AO2
KSBO 190455Z AUTO 14006KT 10SM OVC010 17/15 A3032 RMK AO2
KSBO 190435Z AUTO 14008KT 10SM OVC010 17/15 A3032 RMK AO2
KSBO 190415Z AUTO 13009KT 10SM OVC013 17/15 A3032 RMK AO2
KSBO 190355Z AUTO 14007KT 10SM OVC011 17/15 A3032 RMK AO2
KSBO 190335Z AUTO 14012KT 10SM OVC011 17/15 A3033 RMK AO2
KSBO 190315Z AUTO 14009KT 10SM OVC011 17/15 A3033 RMK AO2
KSBO 190255Z AUTO 14010G14KT 10SM OVC011 17/15 A3032 RMK AO2
KSBO 190235Z AUTO 13009KT 10SM OVC011 17/16 A3032 RMK AO2
KSBO 190215Z AUTO 14010KT 7SM OVC011 18/16 A3032 RMK AO2
KSBO 190155Z AUTO 13012KT 10SM OVC011 18/16 A3031 RMK AO2
KSBO 190135Z AUTO 13007KT 10SM OVC013 18/17 A3030 RMK AO2
KSBO 190115Z AUTO 13007KT 10SM SCT013 18/16 A3029 RMK AO2
KSBO 190055Z AUTO 12007KT 10SM SCT018 19/16 A3028 RMK AO2
KSBO 190035Z AUTO 11006KT 10SM BKN018 BKN024 19/16 A3028 RMK AO2
KSBO 190015Z AUTO 12006KT 10SM OVC020 20/16 A3028 RMK AO2
KSBO 182355Z AUTO 12007KT 10SM BKN020 OVC036 20/16 A3027 RMK AO2
KSBO 182335Z AUTO 12005KT 10SM OVC034 20/16 A3027 RMK AO2
KSBO 182315Z AUTO 12005KT 10SM OVC027 20/16 A3026 RMK AO2
KSBO 182255Z AUTO 12006KT 10SM OVC027 21/16 A3026 RMK AO2
KSBO 182235Z AUTO 13007KT 10SM OVC027 21/16 A3026 RMK AO2
KSBO 182215Z AUTO 12006KT 10SM OVC027 21/16 A3026 RMK AO2
KSBO 182155Z AUTO 10005KT 10SM OVC027 21/16 A3026 RMK AO2
KSBO 182135Z AUTO 14005KT 10SM OVC027 21/16 A3025 RMK AO2
KSBO 182115Z AUTO 10004KT 10SM OVC025 22/16 A3025 RMK AO2
KSBO 182055Z AUTO 13005KT 10SM OVC025 21/16 A3025 RMK AO2
KSBO 182035Z AUTO 13005KT 10SM OVC025 21/16 A3025 RMK AO2
KSBO 182015Z AUTO 12005KT 10SM BKN025 OVC034 22/16 A3025 RMK AO2
KSBO 181955Z AUTO 10005KT 10SM BKN027 BKN034 OVC090 22/16 A3024 RMK AO2
KSBO 181935Z AUTO 12004KT 10SM SCT027 BKN034 OVC055 21/16 A3025 RMK AO2
KSBO 181915Z AUTO 00000KT 10SM SCT027 BKN034 OVC060 21/15 A3025 RMK AO2
KSBO 181855Z AUTO 11004KT 10SM SCT028 BKN034 OVC060 21/15 A3025 RMK AO2
KSBO 181835Z AUTO 13003KT 10SM BKN034 OVC060 21/15 A3026 RMK AO2
KSBO 181815Z AUTO 13003KT 10SM BKN050 OVC060 21/15 A3026 RMK AO2
KSBO 181755Z AUTO 06004KT 10SM SCT028 SCT047 OVC060 21/15 A3026 RMK AO2
KSBO 181735Z AUTO 07003KT 10SM SCT024 BKN050 OVC080 21/15 A3027 RMK AO2
KSBO 181715Z AUTO 00000KT 10SM OVC024 21/15 A3028 RMK AO2
KSBO 181655Z AUTO 00000KT 10SM BKN024 OVC090 20/15 A3029 RMK AO2
KSBO 181635Z AUTO 04005KT 10SM SCT016 SCT024 OVC090 20/16 A3028 RMK AO2
KSBO 181615Z AUTO 07004KT 10SM SCT016 OVC024 20/16 A3028 RMK AO2
KSBO 181555Z AUTO 07004KT 10SM OVC024 20/16 A3028 RMK AO2